createdAt,value
2023-02-26T00:01:40.240Z,3.40
2023-02-26T00:04:09.431Z,3.30
2023-02-26T00:06:51.678Z,3.30
2023-02-26T00:09:20.234Z,3.40
2023-02-26T00:11:49.479Z,3.50
2023-02-26T00:14:18.915Z,3.30
2023-02-26T00:16:50.913Z,3.50
2023-02-26T00:19:19.509Z,2.80
2023-02-26T00:21:48.591Z,3.10
2023-02-26T00:24:16.559Z,3.40
2023-02-26T00:26:44.636Z,3.30
2023-02-26T00:29:13.799Z,3.20
2023-02-26T00:31:42.724Z,3.80
2023-02-26T00:34:13.687Z,3.20
2023-02-26T00:36:50.656Z,3.60
2023-02-26T00:41:56.356Z,3.40
2023-02-26T00:44:25.574Z,3.50
2023-02-26T00:47:00.685Z,3.60
2023-02-26T00:49:46.570Z,3.70
2023-02-26T00:52:20.241Z,3.90
2023-02-26T00:54:48.163Z,4.00
2023-02-26T00:57:16.143Z,3.50
2023-02-26T00:59:44.661Z,3.40
2023-02-26T01:02:12.630Z,3.50
2023-02-26T01:04:42.911Z,3.40
2023-02-26T01:07:11.440Z,3.10
2023-02-26T01:09:40.188Z,3.40
2023-02-26T01:12:12.695Z,3.00
2023-02-26T01:14:43.244Z,3.30
2023-02-26T01:17:18.169Z,3.10
2023-02-26T01:19:52.233Z,3.00
2023-02-26T01:22:25.289Z,3.80
2023-02-26T01:25:01.116Z,3.50
2023-02-26T01:27:29.847Z,3.50
2023-02-26T01:29:58.682Z,4.20
2023-02-26T01:32:35.669Z,3.50
2023-02-26T01:35:16.527Z,3.70
2023-02-26T01:37:52.344Z,3.80
2023-02-26T01:41:02.843Z,3.50
2023-02-26T01:43:38.383Z,4.00
2023-02-26T01:46:16.002Z,3.70
2023-02-26T01:48:50.368Z,3.80
2023-02-26T01:51:19.977Z,4.30
2023-02-26T01:53:48.771Z,4.30
2023-02-26T01:56:19.257Z,4.00
2023-02-26T01:58:50.351Z,4.20
2023-02-26T02:01:18.327Z,4.90
2023-02-26T02:03:46.635Z,3.60
2023-02-26T02:06:21.248Z,3.60
2023-02-26T02:08:49.424Z,4.40
2023-02-26T02:11:17.566Z,3.90
2023-02-26T02:13:59.473Z,3.10
2023-02-26T02:16:36.907Z,3.30
2023-02-26T02:19:23.870Z,4.30
2023-02-26T02:22:27.659Z,4.00
2023-02-26T02:25:15.409Z,3.50
2023-02-26T02:27:53.022Z,2.90
2023-02-26T02:30:40.514Z,4.00
2023-02-26T02:33:15.046Z,3.90
2023-02-26T02:35:48.991Z,3.60
2023-02-26T02:38:23.528Z,3.40
2023-02-26T02:40:57.754Z,3.70
2023-02-26T02:43:31.631Z,4.00
2023-02-26T02:46:04.152Z,3.60
2023-02-26T02:48:36.837Z,3.40
2023-02-26T02:51:09.655Z,4.30
2023-02-26T02:53:43.687Z,3.50
2023-02-26T02:56:18.308Z,3.30
2023-02-26T02:58:52.497Z,4.00
2023-02-26T03:01:26.065Z,3.40
2023-02-26T03:03:59.720Z,4.40
2023-02-26T03:06:27.919Z,3.40
2023-02-26T03:08:56.162Z,3.70
2023-02-26T03:11:24.155Z,4.10
2023-02-26T03:13:53.342Z,4.00
2023-02-26T03:16:49.117Z,3.70
2023-02-26T03:19:26.176Z,4.20
2023-02-26T03:22:01.576Z,3.70
2023-02-26T03:24:51.737Z,4.00
2023-02-26T03:27:26.245Z,3.40
2023-02-26T03:29:59.879Z,3.70
2023-02-26T03:32:34.157Z,3.60
2023-02-26T03:35:08.018Z,3.30
2023-02-26T03:37:39.229Z,3.90
2023-02-26T03:40:16.239Z,4.10
2023-02-26T03:42:49.106Z,3.40
2023-02-26T03:45:21.965Z,3.80
2023-02-26T03:47:53.611Z,3.20
2023-02-26T03:50:29.554Z,3.20
2023-02-26T03:53:17.800Z,3.30
2023-02-26T03:55:56.262Z,3.50
2023-02-26T03:58:38.033Z,3.90
2023-02-26T04:01:21.890Z,3.50
2023-02-26T04:03:59.774Z,3.20
2023-02-26T04:06:29.095Z,3.40
2023-02-26T04:08:57.695Z,3.40
2023-02-26T04:11:27.268Z,3.20
2023-02-26T04:13:55.298Z,3.30
2023-02-26T04:16:23.911Z,2.90
2023-02-26T04:18:52.019Z,3.00
2023-02-26T04:21:23.175Z,3.50
2023-02-26T04:23:51.260Z,3.70
2023-02-26T04:26:19.294Z,3.40
2023-02-26T04:28:47.374Z,2.90
2023-02-26T04:31:15.563Z,3.10
2023-02-26T04:33:43.862Z,3.30
2023-02-26T04:36:11.872Z,3.20
2023-02-26T04:38:39.961Z,3.40
2023-02-26T04:41:08.069Z,3.10
2023-02-26T04:43:37.069Z,3.10
2023-02-26T04:46:40.335Z,3.10
2023-02-26T04:49:08.769Z,3.70
2023-02-26T04:51:37.080Z,3.50
2023-02-26T04:54:05.875Z,3.30
2023-02-26T04:56:33.883Z,3.60
2023-02-26T04:59:02.329Z,3.70
2023-02-26T05:01:31.358Z,3.40
2023-02-26T05:04:00.685Z,3.30
2023-02-26T05:06:28.734Z,3.80
2023-02-26T05:08:56.677Z,3.00
2023-02-26T05:11:24.720Z,3.10
2023-02-26T05:13:52.707Z,3.50
2023-02-26T05:16:20.886Z,3.10
2023-02-26T05:18:49.100Z,3.10
2023-02-26T05:21:17.076Z,3.10
2023-02-26T05:23:45.064Z,3.30
2023-02-26T05:26:13.070Z,3.10
2023-02-26T05:28:45.095Z,2.60
2023-02-26T05:31:13.433Z,2.60
2023-02-26T05:33:42.412Z,2.90
2023-02-26T05:36:12.705Z,3.10
2023-02-26T05:38:40.671Z,2.70
2023-02-26T05:41:08.683Z,2.20
2023-02-26T05:43:36.634Z,2.60
2023-02-26T05:46:05.090Z,2.50
2023-02-26T05:48:33.086Z,2.60
2023-02-26T05:51:02.242Z,2.80
2023-02-26T05:53:30.121Z,2.40
2023-02-26T05:55:58.106Z,2.30
2023-02-26T05:58:26.200Z,2.40
2023-02-26T06:00:54.167Z,2.60
2023-02-26T06:03:22.251Z,2.30
2023-02-26T06:05:50.236Z,2.40
2023-02-26T06:08:18.186Z,2.30
2023-02-26T06:10:46.110Z,2.30
2023-02-26T06:13:14.080Z,3.20
2023-02-26T06:15:42.162Z,3.80
2023-02-26T06:18:10.154Z,2.60
2023-02-26T06:20:38.206Z,2.50
2023-02-26T06:23:06.105Z,2.50
2023-02-26T06:25:34.108Z,2.30
2023-02-26T06:28:02.139Z,2.60
2023-02-26T06:30:30.125Z,2.20
2023-02-26T06:32:58.228Z,2.70
2023-02-26T06:35:27.871Z,2.80
2023-02-26T06:37:55.958Z,2.30
2023-02-26T06:40:23.905Z,2.60
2023-02-26T06:42:51.858Z,2.70
2023-02-26T06:45:19.798Z,2.50
2023-02-26T06:47:47.762Z,2.50
2023-02-26T06:50:16.012Z,3.20
2023-02-26T06:52:43.932Z,2.60
2023-02-26T06:55:13.044Z,2.30
2023-02-26T06:57:41.162Z,2.30
2023-02-26T07:00:11.349Z,3.00
2023-02-26T07:02:39.452Z,2.40
2023-02-26T07:05:09.258Z,2.10
2023-02-26T07:07:37.242Z,2.20
2023-02-26T07:10:06.882Z,2.60
2023-02-26T07:12:34.567Z,2.30
2023-02-26T07:15:02.483Z,2.50
2023-02-26T07:17:30.611Z,2.20
2023-02-26T07:19:58.557Z,2.70
2023-02-26T07:22:26.641Z,2.30
2023-02-26T07:24:55.478Z,4.50
2023-02-26T07:27:23.414Z,3.50
2023-02-26T07:29:51.492Z,4.00
2023-02-26T07:32:19.436Z,3.10
2023-02-26T07:34:47.729Z,2.20
2023-02-26T07:37:15.674Z,2.30
2023-02-26T07:39:43.790Z,3.70
2023-02-26T07:42:12.251Z,3.60
2023-02-26T07:44:43.108Z,2.80
2023-02-26T07:47:11.224Z,2.50
2023-02-26T07:49:39.692Z,2.70
2023-02-26T07:52:08.021Z,2.60
2023-02-26T07:54:36.619Z,2.80
2023-02-26T07:57:05.455Z,2.40
2023-02-26T07:59:33.456Z,2.70
2023-02-26T08:02:01.555Z,2.80
2023-02-26T08:04:32.411Z,2.90
2023-02-26T08:07:01.082Z,2.80
2023-02-26T08:09:30.037Z,2.60
2023-02-26T08:11:58.274Z,2.60
2023-02-26T08:14:26.282Z,2.90
2023-02-26T08:16:54.204Z,2.80
2023-02-26T08:19:22.302Z,3.20
2023-02-26T08:21:50.887Z,2.90
2023-02-26T08:24:18.950Z,2.50
2023-02-26T08:26:47.168Z,3.20
2023-02-26T08:29:15.290Z,2.90
2023-02-26T08:31:43.393Z,3.00
2023-02-26T08:34:11.642Z,2.80
2023-02-26T08:36:40.076Z,2.70
2023-02-26T08:39:08.026Z,2.60
2023-02-26T08:41:36.047Z,2.60
2023-02-26T08:44:04.853Z,2.20
2023-02-26T08:46:32.847Z,2.20
2023-02-26T08:49:01.008Z,2.20
2023-02-26T08:51:29.046Z,2.50
2023-02-26T08:53:56.999Z,2.20
2023-02-26T08:56:25.350Z,2.30
2023-02-26T08:58:53.756Z,2.50
2023-02-26T09:01:21.765Z,2.20
2023-02-26T09:03:49.759Z,2.10
2023-02-26T09:06:17.668Z,2.00
2023-02-26T09:08:45.619Z,2.50
2023-02-26T09:11:13.586Z,2.40
2023-02-26T09:13:42.304Z,2.00
2023-02-26T09:16:10.895Z,2.00
2023-02-26T09:18:39.119Z,2.00
2023-02-26T09:21:07.115Z,2.10
2023-02-26T09:23:35.462Z,2.10
2023-02-26T09:26:03.642Z,2.40
2023-02-26T09:28:31.639Z,2.10
2023-02-26T09:30:59.640Z,2.10
2023-02-26T09:33:27.745Z,4.40
2023-02-26T09:35:55.717Z,2.80
2023-02-26T09:38:23.978Z,3.00
2023-02-26T09:40:58.158Z,2.60
2023-02-26T09:43:58.704Z,2.50
2023-02-26T09:46:37.853Z,2.60
2023-02-26T09:49:17.090Z,2.60
2023-02-26T09:51:50.202Z,3.30
2023-02-26T09:54:22.276Z,3.30
2023-02-26T09:56:51.726Z,3.70
2023-02-26T09:59:20.023Z,2.90
2023-02-26T10:01:55.868Z,2.80
2023-02-26T10:04:42.815Z,2.90
2023-02-26T10:07:21.126Z,2.80
2023-02-26T10:10:02.772Z,2.80
2023-02-26T10:12:34.844Z,3.00
2023-02-26T10:15:11.903Z,2.90
2023-02-26T10:17:50.036Z,3.10
2023-02-26T10:20:23.670Z,3.20
2023-02-26T10:23:00.478Z,2.80
2023-02-26T10:25:32.914Z,2.90
2023-02-26T10:28:08.954Z,3.30
2023-02-26T10:30:44.432Z,3.20
2023-02-26T10:33:20.664Z,3.50
2023-02-26T10:35:53.081Z,3.30
2023-02-26T10:38:25.986Z,4.50
2023-02-26T10:41:01.498Z,5.10
2023-02-26T10:43:35.316Z,3.70
2023-02-26T10:46:17.103Z,3.40
2023-02-26T10:49:00.954Z,3.30
2023-02-26T10:51:35.996Z,3.40
2023-02-26T10:54:13.059Z,2.80
2023-02-26T10:56:41.127Z,2.40
2023-02-26T10:59:10.316Z,2.90
2023-02-26T11:01:38.686Z,3.00
2023-02-26T11:04:12.285Z,1.90
2023-02-26T11:06:44.984Z,2.60
2023-02-26T11:09:20.565Z,2.10
2023-02-26T11:11:51.432Z,2.20
2023-02-26T11:14:21.782Z,2.30
2023-02-26T11:16:53.144Z,2.60
2023-02-26T11:19:27.154Z,2.10
2023-02-26T11:21:56.144Z,2.20
2023-02-26T11:24:33.500Z,2.20
2023-02-26T11:27:04.451Z,2.30
2023-02-26T11:29:38.139Z,2.80
2023-02-26T11:32:07.282Z,2.50
2023-02-26T11:34:35.963Z,2.70
2023-02-26T11:37:06.209Z,2.40
2023-02-26T11:39:38.394Z,2.30
2023-02-26T11:42:06.529Z,2.90
2023-02-26T11:44:40.565Z,2.60
2023-02-26T11:47:14.519Z,2.20
2023-02-26T11:49:45.032Z,2.50
2023-02-26T11:52:27.476Z,2.80
2023-02-26T11:55:00.571Z,2.80
2023-02-26T11:57:30.775Z,2.50
2023-02-26T12:00:00.933Z,2.50
2023-02-26T12:02:34.798Z,2.70
2023-02-26T12:05:06.617Z,2.50
2023-02-26T12:07:35.008Z,3.10
2023-02-26T12:10:02.951Z,2.80
2023-02-26T12:12:45.819Z,2.40
2023-02-26T12:15:31.685Z,4.80
2023-02-26T12:18:27.670Z,4.00
2023-02-26T12:24:02.853Z,4.20
2023-02-26T12:26:33.956Z,4.20
2023-02-26T12:29:25.446Z,3.30
2023-02-26T12:32:23.948Z,2.70
2023-02-26T12:35:28.529Z,2.90
2023-02-26T12:38:15.439Z,2.10
2023-02-26T12:41:15.948Z,2.40
2023-02-26T12:43:49.596Z,2.40
2023-02-26T12:46:43.389Z,3.30
2023-02-26T12:49:35.973Z,2.60
2023-02-26T12:52:22.652Z,2.30
2023-02-26T12:55:08.367Z,2.20
2023-02-26T12:57:53.930Z,2.30
2023-02-26T13:03:38.007Z,2.00
2023-02-26T13:06:44.164Z,2.40
2023-02-26T13:09:26.932Z,2.10
2023-02-26T13:12:08.981Z,2.90
2023-02-26T13:14:48.756Z,1.90
2023-02-26T13:17:26.814Z,2.20
2023-02-26T13:19:59.753Z,1.80
2023-02-26T13:22:32.207Z,2.20
2023-02-26T13:25:04.070Z,2.10
2023-02-26T13:27:37.356Z,2.00
2023-02-26T13:30:19.740Z,7.90
2023-02-26T13:32:50.640Z,3.90
2023-02-26T13:35:23.831Z,2.90
2023-02-26T13:37:55.731Z,2.30
2023-02-26T13:40:41.261Z,2.40
2023-02-26T13:45:53.267Z,2.00
2023-02-26T13:48:35.202Z,2.30
2023-02-26T13:51:08.645Z,2.40
2023-02-26T13:53:55.025Z,2.40
2023-02-26T13:56:53.842Z,2.10
2023-02-26T13:59:37.749Z,2.60
2023-02-26T14:02:46.117Z,2.10
2023-02-26T14:05:51.323Z,2.30
2023-02-26T14:08:25.923Z,2.50
2023-02-26T14:10:59.720Z,2.40
2023-02-26T14:16:12.578Z,1.90
2023-02-26T14:18:50.739Z,1.90
2023-02-26T14:21:46.714Z,7.00
2023-02-26T14:26:48.923Z,3.40
2023-02-26T14:29:22.131Z,2.60
2023-02-26T14:32:14.433Z,2.70
2023-02-26T14:34:50.769Z,2.20
2023-02-26T14:37:22.769Z,3.50
2023-02-26T14:39:57.283Z,10.00
2023-02-26T14:42:33.665Z,5.90
2023-02-26T14:45:10.234Z,3.00
2023-02-26T14:47:38.565Z,2.40
2023-02-26T14:50:14.465Z,2.50
2023-02-26T14:52:56.936Z,2.40
2023-02-26T14:55:41.111Z,2.70
2023-02-26T14:58:28.111Z,2.50
2023-02-26T15:01:19.441Z,1.70
2023-02-26T15:04:09.396Z,2.30
2023-02-26T15:06:58.778Z,2.30
2023-02-26T15:09:35.933Z,3.00
2023-02-26T15:12:22.331Z,2.50
2023-02-26T15:15:19.032Z,2.40
2023-02-26T15:18:07.085Z,2.60
2023-02-26T15:20:43.239Z,2.50
2023-02-26T15:23:25.698Z,3.00
2023-02-26T15:25:56.574Z,2.70
2023-02-26T15:28:28.928Z,2.70
2023-02-26T15:31:00.773Z,2.60
2023-02-26T15:33:29.742Z,2.90
2023-02-26T15:35:59.412Z,2.70
2023-02-26T15:38:28.371Z,2.80
2023-02-26T15:41:02.385Z,3.10
2023-02-26T15:43:31.119Z,3.10
2023-02-26T15:46:02.423Z,2.80
2023-02-26T15:48:36.836Z,3.00
2023-02-26T15:51:08.139Z,3.40
2023-02-26T15:53:40.504Z,3.40
2023-02-26T15:56:11.991Z,2.80
2023-02-26T15:58:42.900Z,2.80
2023-02-26T16:01:16.791Z,2.60
2023-02-26T16:03:45.512Z,3.10
2023-02-26T16:06:18.067Z,2.90
2023-02-26T16:08:46.313Z,4.20
2023-02-26T16:11:19.770Z,6.00
2023-02-26T16:13:51.021Z,4.50
2023-02-26T16:16:25.792Z,3.70
2023-02-26T16:21:29.173Z,3.10
2023-02-26T16:23:58.879Z,3.60
2023-02-26T16:26:31.615Z,3.90
2023-02-26T16:29:02.782Z,2.90
2023-02-26T16:31:34.647Z,3.60
2023-02-26T16:34:05.033Z,3.50
2023-02-26T16:36:39.733Z,4.00
2023-02-26T16:39:19.246Z,4.00
2023-02-26T16:42:00.443Z,4.00
2023-02-26T16:44:57.188Z,4.30
2023-02-26T16:47:28.615Z,3.80
2023-02-26T16:49:57.313Z,3.60
2023-02-26T16:52:26.514Z,5.00
2023-02-26T16:54:58.997Z,4.70
2023-02-26T16:57:34.516Z,4.10
2023-02-26T17:00:09.443Z,4.50
2023-02-26T17:02:38.678Z,4.50
2023-02-26T17:05:16.903Z,4.40
2023-02-26T17:07:52.045Z,4.10
2023-02-26T17:12:52.861Z,3.90
2023-02-26T17:15:29.566Z,4.80
2023-02-26T17:17:58.362Z,4.90
2023-02-26T17:20:28.066Z,4.90
2023-02-26T17:22:56.945Z,5.30
2023-02-26T17:25:31.362Z,6.00
2023-02-26T17:27:59.521Z,7.30
2023-02-26T17:30:31.454Z,7.90
2023-02-26T17:33:00.065Z,7.60
2023-02-26T17:35:30.677Z,8.00
2023-02-26T17:38:00.101Z,7.50
2023-02-26T17:40:31.133Z,8.60
2023-02-26T17:42:59.386Z,8.80
2023-02-26T17:45:28.577Z,7.50
2023-02-26T17:47:57.864Z,8.60
2023-02-26T17:50:35.749Z,9.40
2023-02-26T17:53:04.189Z,7.40
2023-02-26T17:55:35.036Z,5.60
2023-02-26T17:58:03.534Z,5.50
2023-02-26T18:00:33.749Z,5.40
2023-02-26T18:03:02.938Z,4.70
2023-02-26T18:05:32.709Z,5.00
2023-02-26T18:08:00.681Z,5.80
2023-02-26T18:10:28.715Z,5.20
2023-02-26T18:12:56.981Z,6.40
2023-02-26T18:15:26.232Z,5.80
2023-02-26T18:17:54.373Z,5.80
2023-02-26T18:20:22.782Z,6.40
2023-02-26T18:22:51.159Z,6.50
2023-02-26T18:25:20.202Z,7.00
2023-02-26T18:27:54.121Z,7.40
2023-02-26T18:30:25.527Z,15.40
2023-02-26T18:32:53.622Z,9.70
2023-02-26T18:35:22.577Z,7.30
2023-02-26T18:37:55.222Z,6.10
2023-02-26T18:40:27.617Z,5.50
2023-02-26T18:42:56.541Z,5.70
2023-02-26T18:45:25.016Z,7.70
2023-02-26T18:47:54.064Z,5.60
2023-02-26T18:50:22.513Z,5.80
2023-02-26T18:52:50.821Z,6.60
2023-02-26T18:55:19.332Z,6.10
2023-02-26T18:57:48.769Z,5.40
2023-02-26T19:00:17.984Z,5.60
2023-02-26T19:02:46.729Z,5.70
2023-02-26T19:05:17.911Z,5.40
2023-02-26T19:07:48.269Z,6.10
2023-02-26T19:10:17.186Z,5.60
2023-02-26T19:12:45.488Z,5.00
2023-02-26T19:15:14.744Z,4.70
2023-02-26T19:17:43.157Z,5.80
2023-02-26T19:20:12.863Z,5.30
2023-02-26T19:22:42.870Z,5.40
2023-02-26T19:25:14.150Z,5.40
2023-02-26T19:27:42.557Z,4.60
2023-02-26T19:30:12.779Z,4.20
2023-02-26T19:32:41.487Z,4.80
2023-02-26T19:35:13.046Z,5.00
2023-02-26T19:37:45.189Z,4.90
2023-02-26T19:40:16.282Z,4.10
2023-02-26T19:42:45.206Z,3.70
2023-02-26T19:45:16.609Z,4.20
2023-02-26T19:47:44.964Z,4.10
2023-02-26T19:50:14.064Z,4.20
2023-02-26T19:52:42.268Z,4.20
2023-02-26T19:55:14.093Z,3.60
2023-02-26T19:57:42.740Z,3.70
2023-02-26T20:00:14.169Z,3.30
2023-02-26T20:02:42.850Z,3.70
2023-02-26T20:05:16.322Z,3.60
2023-02-26T20:08:04.719Z,4.10
2023-02-26T20:10:34.771Z,3.70
2023-02-26T20:13:03.165Z,3.50
2023-02-26T20:15:31.742Z,3.70
2023-02-26T20:18:03.275Z,3.30
2023-02-26T20:20:31.815Z,3.00
2023-02-26T20:22:59.976Z,3.20
2023-02-26T20:25:29.078Z,3.10
2023-02-26T20:27:59.751Z,2.70
2023-02-26T20:30:28.833Z,3.80
2023-02-26T20:32:57.020Z,3.60
2023-02-26T20:35:25.522Z,3.40
2023-02-26T20:37:53.926Z,3.00
2023-02-26T20:40:22.466Z,2.80
2023-02-26T20:42:50.720Z,2.70
2023-02-26T20:45:19.239Z,3.40
2023-02-26T20:47:47.539Z,3.20
2023-02-26T20:50:16.025Z,3.60
2023-02-26T20:52:44.615Z,4.10
2023-02-26T20:55:12.993Z,3.80
2023-02-26T20:57:41.278Z,3.40
2023-02-26T21:00:13.425Z,3.60
2023-02-26T21:02:45.593Z,3.50
2023-02-26T21:05:14.981Z,4.30
2023-02-26T21:07:44.122Z,3.70
2023-02-26T21:10:14.438Z,3.80
2023-02-26T21:12:42.749Z,4.00
2023-02-26T21:15:12.827Z,4.30
2023-02-26T21:17:43.148Z,3.70
2023-02-26T21:20:17.235Z,3.60
2023-02-26T21:22:46.433Z,3.90
2023-02-26T21:25:14.908Z,4.00
2023-02-26T21:27:43.248Z,3.90
2023-02-26T21:30:14.539Z,3.30
2023-02-26T21:32:43.559Z,4.10
2023-02-26T21:35:15.427Z,4.40
2023-02-26T21:37:44.426Z,4.50
2023-02-26T21:40:15.146Z,4.70
2023-02-26T21:42:43.876Z,4.20
2023-02-26T21:48:07.415Z,4.10
2023-02-26T21:50:35.595Z,4.20
2023-02-26T21:53:03.963Z,4.50
2023-02-26T21:55:32.511Z,4.50
2023-02-26T21:58:01.498Z,4.50
2023-02-26T22:00:29.916Z,4.20
2023-02-26T22:02:58.539Z,3.70
2023-02-26T22:05:27.214Z,3.80
2023-02-26T22:07:56.749Z,4.40
2023-02-26T22:10:26.096Z,4.00
2023-02-26T22:12:54.573Z,4.00
2023-02-26T22:15:22.684Z,4.70
2023-02-26T22:17:53.395Z,4.90
2023-02-26T22:20:21.843Z,4.10
2023-02-26T22:22:51.297Z,3.90
2023-02-26T22:25:19.820Z,4.40
2023-02-26T22:27:48.408Z,4.10
2023-02-26T22:30:17.403Z,4.10
2023-02-26T22:32:46.787Z,3.90
2023-02-26T22:35:16.536Z,4.30
2023-02-26T22:37:44.950Z,4.70
2023-02-26T22:40:15.128Z,3.80
2023-02-26T22:42:44.698Z,4.00
2023-02-26T22:45:16.540Z,4.00
2023-02-26T22:47:47.485Z,5.30
2023-02-26T22:50:16.949Z,3.70
2023-02-26T22:52:45.465Z,4.10
2023-02-26T22:55:14.174Z,4.50
2023-02-26T22:57:42.598Z,4.10
2023-02-26T23:00:15.459Z,4.10
2023-02-26T23:02:44.420Z,3.70
2023-02-26T23:05:12.785Z,4.00
2023-02-26T23:07:41.475Z,3.60
2023-02-26T23:10:13.385Z,3.80
2023-02-26T23:12:42.687Z,4.00
2023-02-26T23:15:12.092Z,3.60
2023-02-26T23:17:40.752Z,3.20
2023-02-26T23:20:14.237Z,3.50
2023-02-26T23:22:43.133Z,3.00
2023-02-26T23:25:12.297Z,3.40
2023-02-26T23:27:40.543Z,3.40
2023-02-26T23:30:11.305Z,2.90
2023-02-26T23:32:39.527Z,4.40
2023-02-26T23:35:09.618Z,4.00
2023-02-26T23:37:38.236Z,4.10
2023-02-26T23:40:13.944Z,4.00
2023-02-26T23:42:42.456Z,3.70
2023-02-26T23:45:12.506Z,3.80
2023-02-26T23:47:40.651Z,3.90
2023-02-26T23:50:11.232Z,3.90
2023-02-26T23:52:39.469Z,3.90
2023-02-26T23:55:09.688Z,4.40
2023-02-26T23:57:37.862Z,4.50
